sensor_id;sensor_type;location;lat;lon;timestamp;pressure;altitude;pressure_sealevel;temperature;humidity
27643;BME280;15053;48.618;10.024;2022-08-21T00:00:42;94447.94;;;15.54;87.09
27643;BME280;15053;48.618;10.024;2022-08-21T00:03:11;94431.56;;;15.49;87.10
27643;BME280;15053;48.618;10.024;2022-08-21T00:05:41;94440.34;;;15.53;86.99
27643;BME280;15053;48.618;10.024;2022-08-21T00:08:09;94447.00;;;15.50;86.70
27643;BME280;15053;48.618;10.024;2022-08-21T00:10:36;94436.34;;;15.47;87.06
27643;BME280;15053;48.618;10.024;2022-08-21T00:13:04;94432.78;;;15.43;86.83
27643;BME280;15053;48.618;10.024;2022-08-21T00:15:33;94423.97;;;15.38;86.28
27643;BME280;15053;48.618;10.024;2022-08-21T00:18:00;94423.84;;;15.35;86.61
27643;BME280;15053;48.618;10.024;2022-08-21T00:20:27;94426.31;;;15.31;86.43
27643;BME280;15053;48.618;10.024;2022-08-21T00:22:54;94424.94;;;15.25;86.30
27643;BME280;15053;48.618;10.024;2022-08-21T00:25:23;94427.72;;;15.20;86.41
27643;BME280;15053;48.618;10.024;2022-08-21T00:27:52;94419.06;;;15.20;86.84
27643;BME280;15053;48.618;10.024;2022-08-21T00:30:21;94423.09;;;15.26;87.15
27643;BME280;15053;48.618;10.024;2022-08-21T00:32:50;94428.34;;;15.26;86.82
27643;BME280;15053;48.618;10.024;2022-08-21T00:35:20;94422.94;;;15.22;86.86
27643;BME280;15053;48.618;10.024;2022-08-21T00:37:48;94418.00;;;15.21;86.74
27643;BME280;15053;48.618;10.024;2022-08-21T00:40:18;94417.38;;;15.24;86.48
27643;BME280;15053;48.618;10.024;2022-08-21T00:42:46;94413.66;;;15.25;86.63
27643;BME280;15053;48.618;10.024;2022-08-21T00:45:20;94414.91;;;15.27;85.69
27643;BME280;15053;48.618;10.024;2022-08-21T00:47:48;94416.91;;;15.30;86.32
27643;BME280;15053;48.618;10.024;2022-08-21T00:50:15;94411.81;;;15.34;86.34
27643;BME280;15053;48.618;10.024;2022-08-21T00:52:50;94405.31;;;15.31;85.85
27643;BME280;15053;48.618;10.024;2022-08-21T00:55:18;94413.66;;;15.33;85.88
27643;BME280;15053;48.618;10.024;2022-08-21T00:57:51;94421.38;;;15.30;85.32
27643;BME280;15053;48.618;10.024;2022-08-21T01:00:26;94416.63;;;15.23;85.22
27643;BME280;15053;48.618;10.024;2022-08-21T01:02:57;94412.59;;;15.17;85.39
27643;BME280;15053;48.618;10.024;2022-08-21T01:05:25;94412.16;;;15.15;85.50
27643;BME280;15053;48.618;10.024;2022-08-21T01:07:54;94413.66;;;15.16;85.22
27643;BME280;15053;48.618;10.024;2022-08-21T01:10:23;94401.94;;;15.14;85.32
27643;BME280;15053;48.618;10.024;2022-08-21T01:12:55;94405.97;;;15.11;85.15
27643;BME280;15053;48.618;10.024;2022-08-21T01:15:29;94405.34;;;15.14;85.64
27643;BME280;15053;48.618;10.024;2022-08-21T01:17:57;94395.97;;;15.13;85.29
27643;BME280;15053;48.618;10.024;2022-08-21T01:20:24;94396.09;;;15.17;85.40
27643;BME280;15053;48.618;10.024;2022-08-21T01:22:59;94395.31;;;15.16;85.32
27643;BME280;15053;48.618;10.024;2022-08-21T01:25:26;94393.78;;;15.15;85.09
27643;BME280;15053;48.618;10.024;2022-08-21T01:27:53;94387.59;;;15.11;84.93
27643;BME280;15053;48.618;10.024;2022-08-21T01:30:23;94393.47;;;15.08;84.89
27643;BME280;15053;48.618;10.024;2022-08-21T01:32:51;94391.94;;;15.07;84.87
27643;BME280;15053;48.618;10.024;2022-08-21T01:35:19;94390.56;;;15.01;84.82
27643;BME280;15053;48.618;10.024;2022-08-21T01:37:47;94393.34;;;14.96;84.36
27643;BME280;15053;48.618;10.024;2022-08-21T01:40:15;94399.81;;;14.90;84.19
27643;BME280;15053;48.618;10.024;2022-08-21T01:42:44;94404.44;;;14.85;84.35
27643;BME280;15053;48.618;10.024;2022-08-21T01:45:13;94403.06;;;14.87;84.95
27643;BME280;15053;48.618;10.024;2022-08-21T01:47:40;94388.72;;;14.85;85.08
27643;BME280;15053;48.618;10.024;2022-08-21T01:50:11;94395.97;;;14.88;85.03
27643;BME280;15053;48.618;10.024;2022-08-21T01:52:39;94394.56;;;14.82;84.46
27643;BME280;15053;48.618;10.024;2022-08-21T01:55:07;94397.97;;;14.82;85.05
27643;BME280;15053;48.618;10.024;2022-08-21T01:57:34;94400.75;;;14.86;84.62
27643;BME280;15053;48.618;10.024;2022-08-21T02:00:05;94405.22;;;14.85;84.49
27643;BME280;15053;48.618;10.024;2022-08-21T02:02:38;94400.59;;;14.82;84.48
27643;BME280;15053;48.618;10.024;2022-08-21T02:05:05;94405.06;;;14.82;84.05
27643;BME280;15053;48.618;10.024;2022-08-21T02:07:48;94399.22;;;14.85;84.43
27643;BME280;15053;48.618;10.024;2022-08-21T02:10:19;94395.19;;;14.87;84.12
27643;BME280;15053;48.618;10.024;2022-08-21T02:12:45;94386.72;;;14.90;84.59
27643;BME280;15053;48.618;10.024;2022-08-21T02:15:13;94384.09;;;14.90;84.52
27643;BME280;15053;48.618;10.024;2022-08-21T02:17:46;94382.41;;;14.94;84.20
27643;BME280;15053;48.618;10.024;2022-08-21T02:20:20;94387.66;;;14.94;83.77
27643;BME280;15053;48.618;10.024;2022-08-21T02:22:46;94383.16;;;14.95;84.01
27643;BME280;15053;48.618;10.024;2022-08-21T02:25:13;94377.91;;;14.95;83.96
27643;BME280;15053;48.618;10.024;2022-08-21T02:27:42;94381.75;;;14.97;84.04
27643;BME280;15053;48.618;10.024;2022-08-21T02:30:15;94377.28;;;14.98;83.75
27643;BME280;15053;48.618;10.024;2022-08-21T02:32:42;94371.13;;;14.94;83.72
27643;BME280;15053;48.618;10.024;2022-08-21T02:35:10;94382.25;;;14.91;83.81
27643;BME280;15053;48.618;10.024;2022-08-21T02:37:58;94381.00;;;14.88;84.05
27643;BME280;15053;48.618;10.024;2022-08-21T02:40:28;94372.97;;;14.85;84.19
27643;BME280;15053;48.618;10.024;2022-08-21T02:42:55;94363.28;;;14.76;84.54
27643;BME280;15053;48.618;10.024;2022-08-21T02:45:22;94364.81;;;14.77;84.42
27643;BME280;15053;48.618;10.024;2022-08-21T02:47:51;94375.59;;;14.76;84.43
27643;BME280;15053;48.618;10.024;2022-08-21T02:50:23;94369.13;;;14.73;84.18
27643;BME280;15053;48.618;10.024;2022-08-21T02:52:52;94375.16;;;14.74;84.04
27643;BME280;15053;48.618;10.024;2022-08-21T02:55:26;94373.31;;;14.74;84.24
27643;BME280;15053;48.618;10.024;2022-08-21T02:57:55;94369.47;;;14.72;84.28
27643;BME280;15053;48.618;10.024;2022-08-21T03:00:25;94368.69;;;14.71;84.59
27643;BME280;15053;48.618;10.024;2022-08-21T03:02:52;94365.91;;;14.68;83.96
27643;BME280;15053;48.618;10.024;2022-08-21T03:05:19;94366.84;;;14.63;83.89
27643;BME280;15053;48.618;10.024;2022-08-21T03:07:47;94368.22;;;14.61;84.35
27643;BME280;15053;48.618;10.024;2022-08-21T03:10:15;94366.22;;;14.58;84.52
27643;BME280;15053;48.618;10.024;2022-08-21T03:12:42;94369.75;;;14.62;84.12
27643;BME280;15053;48.618;10.024;2022-08-21T03:15:11;94375.00;;;14.62;83.95
27643;BME280;15053;48.618;10.024;2022-08-21T03:17:39;94359.88;;;14.59;84.52
27643;BME280;15053;48.618;10.024;2022-08-21T03:20:07;94364.81;;;14.60;84.21
27643;BME280;15053;48.618;10.024;2022-08-21T03:22:34;94363.72;;;14.61;84.63
27643;BME280;15053;48.618;10.024;2022-08-21T03:25:01;94366.06;;;14.63;85.01
27643;BME280;15053;48.618;10.024;2022-08-21T03:27:32;94372.06;;;14.63;84.53
27643;BME280;15053;48.618;10.024;2022-08-21T03:30:01;94363.88;;;14.65;84.72
27643;BME280;15053;48.618;10.024;2022-08-21T03:32:27;94369.13;;;14.65;84.70
27643;BME280;15053;48.618;10.024;2022-08-21T03:34:55;94374.69;;;14.63;84.65
27643;BME280;15053;48.618;10.024;2022-08-21T03:37:22;94369.13;;;14.65;84.58
27643;BME280;15053;48.618;10.024;2022-08-21T03:39:48;94372.84;;;14.64;84.88
27643;BME280;15053;48.618;10.024;2022-08-21T03:42:16;94374.09;;;14.66;84.60
27643;BME280;15053;48.618;10.024;2022-08-21T03:44:43;94373.75;;;14.68;84.42
27643;BME280;15053;48.618;10.024;2022-08-21T03:47:09;94367.28;;;14.65;84.62
27643;BME280;15053;48.618;10.024;2022-08-21T03:49:36;94372.19;;;14.67;84.84
27643;BME280;15053;48.618;10.024;2022-08-21T03:52:04;94381.94;;;14.66;84.71
27643;BME280;15053;48.618;10.024;2022-08-21T03:54:31;94381.16;;;14.66;84.63
27643;BME280;15053;48.618;10.024;2022-08-21T03:56:57;94378.53;;;14.66;84.26
27643;BME280;15053;48.618;10.024;2022-08-21T03:59:24;94389.66;;;14.63;84.40
27643;BME280;15053;48.618;10.024;2022-08-21T04:01:58;94390.72;;;14.62;84.65
27643;BME280;15053;48.618;10.024;2022-08-21T04:04:26;94386.09;;;14.59;84.19
27643;BME280;15053;48.618;10.024;2022-08-21T04:06:54;94380.09;;;14.58;84.19
27643;BME280;15053;48.618;10.024;2022-08-21T04:09:21;94390.09;;;14.56;84.46
27643;BME280;15053;48.618;10.024;2022-08-21T04:11:49;94384.41;;;14.54;84.44
27643;BME280;15053;48.618;10.024;2022-08-21T04:14:17;94387.00;;;14.54;84.21
27643;BME280;15053;48.618;10.024;2022-08-21T04:16:44;94389.47;;;14.51;84.34
27643;BME280;15053;48.618;10.024;2022-08-21T04:19:12;94389.47;;;14.51;84.45
27643;BME280;15053;48.618;10.024;2022-08-21T04:21:40;94403.66;;;14.50;84.28
27643;BME280;15053;48.618;10.024;2022-08-21T04:24:09;94393.19;;;14.50;84.48
27643;BME280;15053;48.618;10.024;2022-08-21T04:26:38;94399.97;;;14.51;84.20
27643;BME280;15053;48.618;10.024;2022-08-21T04:29:05;94391.47;;;14.45;84.09
27643;BME280;15053;48.618;10.024;2022-08-21T04:31:36;94400.56;;;14.48;84.45
27643;BME280;15053;48.618;10.024;2022-08-21T04:34:05;94402.72;;;14.46;84.11
27643;BME280;15053;48.618;10.024;2022-08-21T04:36:32;94401.81;;;14.42;84.26
27643;BME280;15053;48.618;10.024;2022-08-21T04:39:00;94403.34;;;14.43;84.36
27643;BME280;15053;48.618;10.024;2022-08-21T04:41:29;94408.13;;;14.41;84.15
27643;BME280;15053;48.618;10.024;2022-08-21T04:43:55;94411.34;;;14.38;83.91
27643;BME280;15053;48.618;10.024;2022-08-21T04:46:22;94407.81;;;14.34;84.06
27643;BME280;15053;48.618;10.024;2022-08-21T04:48:49;94418.28;;;14.34;84.18
27643;BME280;15053;48.618;10.024;2022-08-21T04:51:32;94410.44;;;14.34;84.30
27643;BME280;15053;48.618;10.024;2022-08-21T04:54:20;94419.66;;;14.40;84.24
27643;BME280;15053;48.618;10.024;2022-08-21T04:56:55;94414.44;;;14.40;84.34
27643;BME280;15053;48.618;10.024;2022-08-21T04:59:29;94419.84;;;14.52;84.45
27643;BME280;15053;48.618;10.024;2022-08-21T05:01:57;94428.63;;;14.56;84.64
27643;BME280;15053;48.618;10.024;2022-08-21T05:04:26;94418.78;;;14.61;84.44
27643;BME280;15053;48.618;10.024;2022-08-21T05:06:57;94420.94;;;14.68;84.50
27643;BME280;15053;48.618;10.024;2022-08-21T05:09:26;94422.34;;;14.74;84.37
27643;BME280;15053;48.618;10.024;2022-08-21T05:11:54;94419.09;;;14.77;84.42
27643;BME280;15053;48.618;10.024;2022-08-21T05:14:21;94420.97;;;14.85;84.48
27643;BME280;15053;48.618;10.024;2022-08-21T05:16:48;94423.88;;;14.92;84.19
27643;BME280;15053;48.618;10.024;2022-08-21T05:19:14;94425.28;;;14.98;84.05
27643;BME280;15053;48.618;10.024;2022-08-21T05:21:44;94426.97;;;15.03;83.84
27643;BME280;15053;48.618;10.024;2022-08-21T05:24:11;94424.94;;;15.08;83.75
27643;BME280;15053;48.618;10.024;2022-08-21T05:26:37;94424.16;;;15.16;83.97
27643;BME280;15053;48.618;10.024;2022-08-21T05:29:12;94423.38;;;15.24;83.48
27643;BME280;15053;48.618;10.024;2022-08-21T05:31:40;94422.63;;;15.32;83.13
27643;BME280;15053;48.618;10.024;2022-08-21T05:34:07;94423.22;;;15.38;83.22
27643;BME280;15053;48.618;10.024;2022-08-21T05:36:35;94429.53;;;15.46;82.77
27643;BME280;15053;48.618;10.024;2022-08-21T05:39:03;94418.56;;;15.52;82.69
27643;BME280;15053;48.618;10.024;2022-08-21T05:41:29;94420.28;;;15.57;82.72
27643;BME280;15053;48.618;10.024;2022-08-21T05:43:59;94422.72;;;15.62;82.75
27643;BME280;15053;48.618;10.024;2022-08-21T05:46:26;94425.63;;;15.69;82.32
27643;BME280;15053;48.618;10.024;2022-08-21T05:48:53;94424.22;;;15.80;81.88
27643;BME280;15053;48.618;10.024;2022-08-21T05:51:19;94420.78;;;15.88;81.88
27643;BME280;15053;48.618;10.024;2022-08-21T05:53:46;94434.03;;;16.00;81.65
27643;BME280;15053;48.618;10.024;2022-08-21T05:56:14;94422.72;;;16.08;81.71
27643;BME280;15053;48.618;10.024;2022-08-21T05:58:41;94425.75;;;16.19;80.80
27643;BME280;15053;48.618;10.024;2022-08-21T06:01:08;94421.53;;;16.26;80.67
27643;BME280;15053;48.618;10.024;2022-08-21T06:03:38;94427.84;;;16.34;80.59
27643;BME280;15053;48.618;10.024;2022-08-21T06:06:05;94415.28;;;16.39;80.51
27643;BME280;15053;48.618;10.024;2022-08-21T06:08:32;94423.88;;;16.48;80.29
27643;BME280;15053;48.618;10.024;2022-08-21T06:11:01;94427.91;;;16.55;80.47
27643;BME280;15053;48.618;10.024;2022-08-21T06:13:28;94430.81;;;16.62;80.42
27643;BME280;15053;48.618;10.024;2022-08-21T06:16:05;94426.13;;;16.67;80.48
27643;BME280;15053;48.618;10.024;2022-08-21T06:18:33;94426.38;;;16.74;80.31
27643;BME280;15053;48.618;10.024;2022-08-21T06:21:00;94425.09;;;16.80;80.00
27643;BME280;15053;48.618;10.024;2022-08-21T06:23:27;94426.13;;;16.88;79.90
27643;BME280;15053;48.618;10.024;2022-08-21T06:26:00;94427.47;;;16.94;79.89
27643;BME280;15053;48.618;10.024;2022-08-21T06:28:27;94421.38;;;17.02;79.76
27643;BME280;15053;48.618;10.024;2022-08-21T06:30:54;94421.72;;;17.13;79.79
27643;BME280;15053;48.618;10.024;2022-08-21T06:33:20;94420.59;;;17.22;79.58
27643;BME280;15053;48.618;10.024;2022-08-21T06:35:47;94419.38;;;17.32;79.53
27643;BME280;15053;48.618;10.024;2022-08-21T06:38:16;94426.22;;;17.45;79.14
27643;BME280;15053;48.618;10.024;2022-08-21T06:40:42;94424.44;;;17.57;78.83
27643;BME280;15053;48.618;10.024;2022-08-21T06:43:15;94423.81;;;17.73;78.82
27643;BME280;15053;48.618;10.024;2022-08-21T06:45:44;94430.19;;;17.84;78.06
27643;BME280;15053;48.618;10.024;2022-08-21T06:48:11;94430.88;;;17.93;77.26
27643;BME280;15053;48.618;10.024;2022-08-21T06:50:44;94428.44;;;18.00;76.50
27643;BME280;15053;48.618;10.024;2022-08-21T06:53:13;94427.13;;;18.06;75.57
27643;BME280;15053;48.618;10.024;2022-08-21T06:55:41;94426.59;;;18.12;74.91
27643;BME280;15053;48.618;10.024;2022-08-21T06:58:09;94426.03;;;18.19;74.32
27643;BME280;15053;48.618;10.024;2022-08-21T07:00:39;94428.44;;;18.24;73.72
27643;BME280;15053;48.618;10.024;2022-08-21T07:03:07;94427.59;;;18.32;73.67
27643;BME280;15053;48.618;10.024;2022-08-21T07:05:33;94435.06;;;18.42;73.12
27643;BME280;15053;48.618;10.024;2022-08-21T07:08:00;94433.53;;;18.53;73.86
27643;BME280;15053;48.618;10.024;2022-08-21T07:10:27;94418.78;;;18.64;73.59
27643;BME280;15053;48.618;10.024;2022-08-21T07:12:54;94418.31;;;18.74;72.81
27643;BME280;15053;48.618;10.024;2022-08-21T07:15:28;94427.22;;;18.82;71.95
27643;BME280;15053;48.618;10.024;2022-08-21T07:17:56;94425.56;;;18.90;71.62
27643;BME280;15053;48.618;10.024;2022-08-21T07:20:23;94423.88;;;18.97;70.68
27643;BME280;15053;48.618;10.024;2022-08-21T07:22:50;94419.25;;;19.06;70.50
27643;BME280;15053;48.618;10.024;2022-08-21T07:25:17;94418.34;;;19.14;70.11
27643;BME280;15053;48.618;10.024;2022-08-21T07:27:44;94423.91;;;19.25;69.72
27643;BME280;15053;48.618;10.024;2022-08-21T07:30:10;94429.03;;;19.33;69.16
27643;BME280;15053;48.618;10.024;2022-08-21T07:32:37;94424.31;;;19.39;69.08
27643;BME280;15053;48.618;10.024;2022-08-21T07:35:04;94428.00;;;19.50;68.31
27643;BME280;15053;48.618;10.024;2022-08-21T07:37:31;94418.69;;;19.56;68.06
27643;BME280;15053;48.618;10.024;2022-08-21T07:39:58;94423.84;;;19.65;67.96
27643;BME280;15053;48.618;10.024;2022-08-21T07:42:24;94417.72;;;19.76;67.42
27643;BME280;15053;48.618;10.024;2022-08-21T07:44:54;94421.66;;;19.82;66.25
27643;BME280;15053;48.618;10.024;2022-08-21T07:47:22;94419.44;;;19.84;64.79
27643;BME280;15053;48.618;10.024;2022-08-21T07:50:09;94418.75;;;19.87;64.49
27643;BME280;15053;48.618;10.024;2022-08-21T07:52:38;94417.41;;;19.93;63.92
27643;BME280;15053;48.618;10.024;2022-08-21T07:55:06;94417.56;;;20.00;64.35
27643;BME280;15053;48.618;10.024;2022-08-21T07:57:33;94413.97;;;20.09;64.75
27643;BME280;15053;48.618;10.024;2022-08-21T08:00:00;94416.44;;;20.17;64.89
27643;BME280;15053;48.618;10.024;2022-08-21T08:02:28;94412.56;;;20.27;64.73
27643;BME280;15053;48.618;10.024;2022-08-21T08:05:14;94418.13;;;20.41;63.88
27643;BME280;15053;48.618;10.024;2022-08-21T08:07:40;94411.91;;;20.49;62.91
27643;BME280;15053;48.618;10.024;2022-08-21T08:10:08;94410.53;;;20.55;62.14
27643;BME280;15053;48.618;10.024;2022-08-21T08:12:37;94406.84;;;20.59;61.93
27643;BME280;15053;48.618;10.024;2022-08-21T08:15:05;94405.63;;;20.73;61.91
27643;BME280;15053;48.618;10.024;2022-08-21T08:17:32;94393.97;;;20.77;60.99
27643;BME280;15053;48.618;10.024;2022-08-21T08:20:00;94399.75;;;20.83;61.13
27643;BME280;15053;48.618;10.024;2022-08-21T08:22:29;94401.41;;;20.87;60.35
27643;BME280;15053;48.618;10.024;2022-08-21T08:24:56;94399.97;;;20.93;60.06
27643;BME280;15053;48.618;10.024;2022-08-21T08:27:23;94400.84;;;20.97;59.67
27643;BME280;15053;48.618;10.024;2022-08-21T08:29:49;94400.56;;;21.02;59.30
27643;BME280;15053;48.618;10.024;2022-08-21T08:32:16;94400.28;;;21.07;59.14
27643;BME280;15053;48.618;10.024;2022-08-21T08:34:43;94408.41;;;21.14;58.83
27643;BME280;15053;48.618;10.024;2022-08-21T08:37:09;94393.31;;;21.18;58.71
27643;BME280;15053;48.618;10.024;2022-08-21T08:39:36;94398.50;;;21.31;58.82
27643;BME280;15053;48.618;10.024;2022-08-21T08:42:06;94392.31;;;21.46;58.77
27643;BME280;15053;48.618;10.024;2022-08-21T08:45:16;94392.94;;;21.58;57.19
27643;BME280;15053;48.618;10.024;2022-08-21T08:47:49;94395.38;;;21.67;56.28
27643;BME280;15053;48.618;10.024;2022-08-21T08:50:22;94391.66;;;21.71;56.22
27643;BME280;15053;48.618;10.024;2022-08-21T08:53:23;94393.09;;;21.88;56.61
27643;BME280;15053;48.618;10.024;2022-08-21T08:55:53;94397.47;;;22.00;56.12
27643;BME280;15053;48.618;10.024;2022-08-21T08:58:27;94394.13;;;22.06;55.44
27643;BME280;15053;48.618;10.024;2022-08-21T09:00:57;94384.13;;;22.19;55.67
27643;BME280;15053;48.618;10.024;2022-08-21T09:03:25;94386.56;;;22.31;55.30
27643;BME280;15053;48.618;10.024;2022-08-21T09:11:28;94388.13;;;22.62;53.03
27643;BME280;15053;48.618;10.024;2022-08-21T09:19:55;94383.81;;;22.76;52.02
27643;BME280;15053;48.618;10.024;2022-08-21T09:22:39;94376.75;;;22.87;51.53
27643;BME280;15053;48.618;10.024;2022-08-21T09:27:44;94386.22;;;22.85;51.90
27643;BME280;15053;48.618;10.024;2022-08-21T09:30:12;94383.25;;;22.64;51.65
27643;BME280;15053;48.618;10.024;2022-08-21T09:32:39;94380.34;;;22.72;51.60
27643;BME280;15053;48.618;10.024;2022-08-21T09:35:21;94381.34;;;22.90;50.11
27643;BME280;15053;48.618;10.024;2022-08-21T09:37:52;94373.22;;;23.10;48.94
27643;BME280;15053;48.618;10.024;2022-08-21T09:40:39;94373.84;;;23.00;48.73
27643;BME280;15053;48.618;10.024;2022-08-21T09:43:22;94372.94;;;22.85;48.33
27643;BME280;15053;48.618;10.024;2022-08-21T09:46:07;94376.94;;;23.05;48.04
27643;BME280;15053;48.618;10.024;2022-08-21T09:48:44;94379.88;;;23.26;47.39
27643;BME280;15053;48.618;10.024;2022-08-21T09:51:19;94374.75;;;23.44;46.23
27643;BME280;15053;48.618;10.024;2022-08-21T09:53:56;94368.31;;;23.45;45.60
27643;BME280;15053;48.618;10.024;2022-08-21T09:56:33;94374.09;;;23.54;45.43
27643;BME280;15053;48.618;10.024;2022-08-21T09:59:26;94375.38;;;23.67;45.34
27643;BME280;15053;48.618;10.024;2022-08-21T10:01:56;94369.72;;;23.72;45.72
27643;BME280;15053;48.618;10.024;2022-08-21T10:04:34;94376.25;;;23.82;45.08
27643;BME280;15053;48.618;10.024;2022-08-21T10:07:13;94369.06;;;23.86;45.95
27643;BME280;15053;48.618;10.024;2022-08-21T10:09:41;94368.81;;;24.01;44.93
27643;BME280;15053;48.618;10.024;2022-08-21T10:12:23;94359.88;;;24.24;44.24
27643;BME280;15053;48.618;10.024;2022-08-21T10:18:06;94359.00;;;24.63;44.05
27643;BME280;15053;48.618;10.024;2022-08-21T10:20:27;94355.69;;;24.84;42.80
27643;BME280;15053;48.618;10.024;2022-08-21T10:23:03;94358.63;;;24.65;42.55
27643;BME280;15053;48.618;10.024;2022-08-21T10:25:37;94366.75;;;24.25;43.39
27643;BME280;15053;48.618;10.024;2022-08-21T10:31:14;94369.06;;;24.30;42.99
27643;BME280;15053;48.618;10.024;2022-08-21T10:36:40;94362.75;;;24.04;42.68
27643;BME280;15053;48.618;10.024;2022-08-21T10:39:36;94359.63;;;23.92;43.23
27643;BME280;15053;48.618;10.024;2022-08-21T10:42:20;94347.28;;;24.14;43.81
27643;BME280;15053;48.618;10.024;2022-08-21T10:47:47;94347.72;;;24.88;42.29
27643;BME280;15053;48.618;10.024;2022-08-21T10:55:37;94350.50;;;25.23;40.63
27643;BME280;15053;48.618;10.024;2022-08-21T10:58:14;94347.38;;;24.96;41.63
27643;BME280;15053;48.618;10.024;2022-08-21T11:00:47;94353.34;;;24.72;43.21
27643;BME280;15053;48.618;10.024;2022-08-21T11:03:24;94344.81;;;24.45;43.28
27643;BME280;15053;48.618;10.024;2022-08-21T11:06:09;94346.22;;;24.29;43.22
27643;BME280;15053;48.618;10.024;2022-08-21T11:08:48;94342.72;;;24.18;43.91
27643;BME280;15053;48.618;10.024;2022-08-21T11:11:25;94343.72;;;24.57;43.56
27643;BME280;15053;48.618;10.024;2022-08-21T11:14:22;94336.75;;;25.14;43.08
27643;BME280;15053;48.618;10.024;2022-08-21T11:16:59;94328.91;;;25.56;41.38
27643;BME280;15053;48.618;10.024;2022-08-21T11:19:36;94331.56;;;25.53;40.79
27643;BME280;15053;48.618;10.024;2022-08-21T11:22:15;94329.19;;;25.16;41.26
27643;BME280;15053;48.618;10.024;2022-08-21T11:24:51;94335.31;;;25.41;41.39
27643;BME280;15053;48.618;10.024;2022-08-21T11:27:28;94326.63;;;25.65;40.96
27643;BME280;15053;48.618;10.024;2022-08-21T11:29:59;94323.88;;;25.44;41.01
27643;BME280;15053;48.618;10.024;2022-08-21T11:46:07;94315.19;;;24.57;42.11
27643;BME280;15053;48.618;10.024;2022-08-21T11:51:27;94325.69;;;24.29;43.70
27643;BME280;15053;48.618;10.024;2022-08-21T11:57:11;94315.69;;;24.12;46.09
27643;BME280;15053;48.618;10.024;2022-08-21T11:59:49;94323.19;;;23.99;44.90
27643;BME280;15053;48.618;10.024;2022-08-21T12:02:23;94307.31;;;24.10;44.58
27643;BME280;15053;48.618;10.024;2022-08-21T12:05:02;94317.75;;;24.36;43.47
27643;BME280;15053;48.618;10.024;2022-08-21T12:07:39;94310.81;;;24.21;43.65
27643;BME280;15053;48.618;10.024;2022-08-21T12:10:10;94309.91;;;24.06;43.28
27643;BME280;15053;48.618;10.024;2022-08-21T12:12:37;94306.41;;;23.95;43.61
27643;BME280;15053;48.618;10.024;2022-08-21T12:15:13;94304.28;;;24.15;42.77
27643;BME280;15053;48.618;10.024;2022-08-21T12:17:58;94298.34;;;24.36;42.24
27643;BME280;15053;48.618;10.024;2022-08-21T12:28:12;94303.31;;;26.40;40.40
27643;BME280;15053;48.618;10.024;2022-08-21T12:30:42;94296.34;;;26.74;38.48
27643;BME280;15053;48.618;10.024;2022-08-21T12:33:28;94298.34;;;26.56;38.00
27643;BME280;15053;48.618;10.024;2022-08-21T12:36:15;94293.31;;;26.79;38.02
27643;BME280;15053;48.618;10.024;2022-08-21T12:38:56;94295.75;;;27.25;37.44
27643;BME280;15053;48.618;10.024;2022-08-21T12:41:31;94288.94;;;27.76;37.07
27643;BME280;15053;48.618;10.024;2022-08-21T12:44:07;94283.63;;;28.17;36.58
27643;BME280;15053;48.618;10.024;2022-08-21T12:49:16;94284.34;;;28.58;34.52
27643;BME280;15053;48.618;10.024;2022-08-21T12:51:52;94277.63;;;28.43;33.97
27643;BME280;15053;48.618;10.024;2022-08-21T12:54:36;94282.78;;;27.79;34.88
27643;BME280;15053;48.618;10.024;2022-08-21T12:57:05;94280.44;;;27.84;36.66
27643;BME280;15053;48.618;10.024;2022-08-21T12:59:37;94268.34;;;28.14;35.97
27643;BME280;15053;48.618;10.024;2022-08-21T13:02:15;94272.88;;;28.57;36.32
27643;BME280;15053;48.618;10.024;2022-08-21T13:04:43;94261.88;;;28.82;35.59
27643;BME280;15053;48.618;10.024;2022-08-21T13:07:19;94258.56;;;29.01;35.14
27643;BME280;15053;48.618;10.024;2022-08-21T13:09:59;94268.75;;;29.13;34.09
27643;BME280;15053;48.618;10.024;2022-08-21T13:12:28;94263.72;;;29.15;34.42
27643;BME280;15053;48.618;10.024;2022-08-21T13:15:02;94262.56;;;29.47;34.27
27643;BME280;15053;48.618;10.024;2022-08-21T13:17:38;94262.47;;;29.77;33.26
27643;BME280;15053;48.618;10.024;2022-08-21T13:20:25;94260.88;;;29.83;33.01
27643;BME280;15053;48.618;10.024;2022-08-21T13:22:53;94269.38;;;30.01;32.38
27643;BME280;15053;48.618;10.024;2022-08-21T13:25:25;94267.63;;;30.14;32.01
27643;BME280;15053;48.618;10.024;2022-08-21T13:28:09;94265.72;;;30.34;32.18
27643;BME280;15053;48.618;10.024;2022-08-21T13:31:05;94260.47;;;30.27;31.57
27643;BME280;15053;48.618;10.024;2022-08-21T13:33:33;94270.94;;;30.22;31.52
27643;BME280;15053;48.618;10.024;2022-08-21T13:36:13;94264.72;;;30.25;31.74
27643;BME280;15053;48.618;10.024;2022-08-21T13:38:42;94256.94;;;30.30;31.25
27643;BME280;15053;48.618;10.024;2022-08-21T13:41:12;94260.66;;;30.40;31.75
27643;BME280;15053;48.618;10.024;2022-08-21T13:43:49;94263.97;;;30.48;32.14
27643;BME280;15053;48.618;10.024;2022-08-21T13:46:18;94260.78;;;30.53;31.50
27643;BME280;15053;48.618;10.024;2022-08-21T13:48:48;94260.84;;;30.69;32.36
27643;BME280;15053;48.618;10.024;2022-08-21T13:51:15;94250.84;;;30.69;32.48
27643;BME280;15053;48.618;10.024;2022-08-21T13:56:23;94260.19;;;30.84;31.19
27643;BME280;15053;48.618;10.024;2022-08-21T13:58:51;94254.78;;;30.84;31.60
27643;BME280;15053;48.618;10.024;2022-08-21T14:01:22;94259.16;;;30.98;30.25
27643;BME280;15053;48.618;10.024;2022-08-21T14:03:52;94254.84;;;30.42;30.49
27643;BME280;15053;48.618;10.024;2022-08-21T14:06:23;94255.22;;;29.74;31.61
27643;BME280;15053;48.618;10.024;2022-08-21T14:09:09;94256.00;;;29.21;31.38
27643;BME280;15053;48.618;10.024;2022-08-21T14:11:37;94253.38;;;28.87;33.12
27643;BME280;15053;48.618;10.024;2022-08-21T14:14:13;94256.75;;;29.25;33.32